Time;durP1;ratioP1;P1;durP2;ratioP2;P2;SDS_P1;SDS_P2;PMS_P1;PMS_P2;Temp;Humidity;BMP_temperature;BMP_pressure;BME280_temperature;BME280_humidity;BME280_pressure;Samples;Min_cycle;Max_cycle;Signal;HPM_P1;HPM_P2
2022/01/22 00:02:24;;;;;;;4.30;2.35;;;;;;;-0.56;70.91;100513.63;5031560;28;20072;-62
2022/01/22 00:04:49;;;;;;;4.13;2.22;;;;;;;-0.59;71.21;100523.50;5032529;28;20487;-61
2022/01/22 00:07:15;;;;;;;4.55;2.20;;;;;;;-0.54;71.08;100523.63;5032683;28;20033;-61
2022/01/22 00:09:47;;;;;;;4.35;2.15;;;;;;;-0.73;70.73;100479.88;5031385;28;20120;-61
2022/01/22 00:12:24;;;;;;;6.50;2.00;;;;;;;-0.47;70.55;100523.81;5032587;28;20092;-61
2022/01/22 00:14:49;;;;;;;4.40;2.10;;;;;;;-0.50;69.91;100501.28;5032663;28;20103;-61
2022/01/22 00:17:14;;;;;;;5.57;2.03;;;;;;;-0.39;69.26;100531.47;5032189;28;20475;-61
2022/01/22 00:19:40;;;;;;;5.70;2.28;;;;;;;-0.73;70.06;100479.88;5032238;28;20033;-61
2022/01/22 00:22:05;;;;;;;5.43;2.42;;;;;;;-0.48;70.74;100528.78;5032745;28;20033;-61
2022/01/22 00:24:37;;;;;;;5.40;2.15;;;;;;;-0.94;70.92;100457.75;5031170;28;20495;-61
2022/01/22 00:27:02;;;;;;;;;;;;;;;-0.50;71.09;100538.72;5032945;28;20458;-62
2022/01/22 00:29:28;;;;;;;;;;;;;;;-0.53;72.18;100540.28;5032652;28;19913;-62
2022/01/22 00:31:53;;;;;;;;;;;;;;;-0.59;71.79;100538.47;5032635;28;19909;-61
2022/01/22 00:34:18;;;;;;;;;;;;;;;-0.61;72.31;100546.72;5032609;28;20497;-61
2022/01/22 00:36:44;;;;;;;;;;;;;;;-0.57;71.71;100546.00;5032725;28;19913;-61
2022/01/22 00:39:09;;;;;;;;;;;;;;;-0.57;71.38;100546.00;5032308;28;19920;-61
2022/01/22 00:41:35;;;;;;;;;;;;;;;-0.57;72.56;100549.34;5047814;28;20014;-61
2022/01/22 00:44:00;;;;;;;;;;;;;;;-0.65;72.73;100553.28;5047610;28;20426;-61
2022/01/22 00:46:25;;;;;;;;;;;;;;;-0.63;72.85;100544.19;5030756;28;19963;-61
2022/01/22 00:48:50;;;;;;;;;;;;;;;-0.66;72.59;100545.78;5032727;28;20303;-62
2022/01/22 00:51:16;;;;;;;;;;;;;;;-0.58;71.13;100541.81;5032754;28;19920;-61
2022/01/22 00:53:41;;;;;;;;;;;;;;;-0.59;70.47;100558.44;5032279;28;19971;-61
2022/01/22 00:56:07;;;;;;;;;;;;;;;-0.65;70.16;100543.31;5032294;28;19913;-61
2022/01/22 00:58:32;;;;;;;;;;;;;;;-0.62;70.89;100545.91;5032164;28;19913;-61
2022/01/22 01:03:34;;;;;;;;;;;;;;;-0.75;71.91;100541.38;3788092;26;10000540;-61
2022/01/22 01:06:00;;;;;;;;;;;;;;;-0.71;71.77;100537.34;5012059;28;19924;-61
2022/01/22 01:08:28;;;;;;;;;;;;;;;-0.74;72.03;100540.59;5012357;28;19913;-61
2022/01/22 01:10:53;;;;;;;;;;;;;;;-0.68;71.77;100535.75;5010610;28;19917;-61
2022/01/22 01:13:19;;;;;;;;;;;;;;;-0.69;72.61;100538.22;5012196;28;19979;-62
2022/01/22 01:15:58;;;;;;;;;;;;;;;-0.76;72.69;100539.72;5012579;28;19959;-61
2022/01/22 01:32:18;;;;;;;;;;;;;;;-0.72;71.82;100531.50;5011772;28;19940;-61
2022/01/22 01:34:45;;;;;;;;;;;;;;;-0.64;71.91;100530.03;5011920;28;19921;-60
2022/01/22 01:37:14;;;;;;;;;;;;;;;-0.62;71.13;100525.94;5011803;28;20389;-61
2022/01/22 01:39:40;;;;;;;;;;;;;;;-0.78;72.19;100526.34;5011719;28;19917;-61
2022/01/22 01:42:10;;;;;;;;;;;;;;;-0.71;72.54;100532.34;5011598;28;19913;-61
2022/01/22 01:44:36;;;;;;;;;;;;;;;-0.78;72.71;100523.84;5010399;28;19943;-61
2022/01/22 01:47:03;;;;;;;;;;;;;;;-0.80;74.02;100517.97;5011563;28;20055;-61
2022/01/22 01:49:29;;;;;;;;;;;;;;;-0.82;74.20;100519.59;5011459;28;20302;-61
2022/01/22 01:51:57;;;;;;;;;;;;;;;-0.74;74.16;100518.13;5010860;28;19914;-61
2022/01/22 01:54:47;;;;;;;;;;;;;;;-0.91;74.71;100514.34;5011725;28;19914;-61
2022/01/22 01:59:52;;;;;;;;;;;;;;;-0.84;74.81;100521.19;5011463;28;19975;-61
2022/01/22 02:02:17;;;;;;;;;;;;;;;-0.88;75.06;100519.41;5026283;28;20383;-61
2022/01/22 02:04:43;;;;;;;;;;;;;;;-0.83;75.11;100520.38;5011350;28;19922;-61
2022/01/22 02:07:08;;;;;;;;;;;;;;;-0.80;75.05;100522.97;5011481;28;20288;-60
2022/01/22 02:09:34;;;;;;;;;;;;;;;-0.81;75.22;100520.44;5011554;28;20026;-61
2022/01/22 02:12:06;;;;;;;;;;;;;;;-0.83;75.77;100525.38;5011240;28;19917;-61
2022/01/22 02:25:18;;;;;;;;;;;;;;;-0.80;76.12;100512.97;5011047;28;20346;-61
2022/01/22 02:27:43;;;;;;;;;;;;;;;-0.83;77.32;100507.91;5010706;28;19913;-61
2022/01/22 02:30:09;;;;;;;;;;;;;;;-1.02;78.09;100495.75;5010964;28;19963;-61
2022/01/22 02:37:38;;;;;;;;;;;;;;;-1.01;78.80;100494.97;5011088;28;19917;-61
2022/01/22 02:40:20;;;;;;;;;;;;;;;-0.82;78.34;100494.63;5009582;28;20004;-60
2022/01/22 02:42:46;;;;;;;;;;;;;;;-0.89;79.02;100498.59;5011083;28;20004;-60
2022/01/22 02:45:17;;;;;;;;;;;;;;;-1.02;79.87;100495.75;5010838;28;20048;-61
2022/01/22 02:47:42;;;;;;;;;;;;;;;-0.99;79.85;100501.66;5026334;28;19983;-61
2022/01/22 02:50:08;;;;;;;;;;;;;;;-1.11;79.55;100501.34;5010798;28;20427;-61
2022/01/22 02:52:33;;;;;;;;;;;;;;;-1.11;80.85;100486.38;5010720;28;20366;-61
2022/01/22 02:55:00;;;;;;;;;;;;;;;-1.17;83.03;100498.69;5010909;28;20378;-60
2022/01/22 02:57:26;;;;;;;;;;;;;;;-1.13;82.72;100490.47;5009576;28;19960;-60
2022/01/22 02:59:51;;;;;;;;;;;;;;;-1.18;82.82;100487.03;5011133;28;20406;-61
2022/01/22 03:02:17;;;;;;;;;;;;;;;-1.23;84.88;100490.22;5010861;28;19921;-61
2022/01/22 03:04:42;;;;;;;;;;;;;;;-1.12;84.61;100493.81;5013195;28;19996;-61
2022/01/22 03:07:07;;;;;;;;;;;;;;;-1.34;85.64;100484.06;5014285;28;19913;-61
2022/01/22 03:09:40;;;;;;;;;;;;;;;-1.52;88.29;100486.91;5014569;28;19929;-61
2022/01/22 03:22:53;;;;;;;;;;;;;;;-1.01;85.96;100475.84;5014473;28;19909;-61
2022/01/22 03:27:58;;;;;;;;;;;;;;;-1.04;87.88;100457.47;5014600;28;19932;-60
2022/01/22 03:30:24;;;;;;;;;;;;;;;-1.03;89.03;100456.66;5014302;28;19914;-61
2022/01/22 03:32:52;;;;;;;;;;;;;;;-1.10;90.96;100458.16;5013907;28;20359;-61
2022/01/22 03:37:44;;;;;;;;;;;;;;;-0.95;91.02;100452.69;5014170;28;19913;-61
2022/01/22 03:40:12;;;;;;;;;;;;;;;-0.99;93.14;100445.97;5013804;28;20376;-61
2022/01/22 03:42:37;;;;;;;;;;;;;;;-1.03;92.29;100454.19;5014040;28;20403;-61
2022/01/22 03:45:03;;;;;;;;;;;;;;;-1.01;90.51;100460.06;5013623;28;19920;-61
2022/01/22 03:47:28;;;;;;;;;;;;;;;-1.09;90.56;100459.00;5013420;28;19975;-61
2022/01/22 03:49:54;;;;;;;;;;;;;;;-0.95;90.01;100455.19;5014108;28;19913;-61
2022/01/22 03:52:19;;;;;;;;;;;;;;;-0.91;90.62;100455.31;5014148;28;20286;-61
2022/01/22 03:54:44;;;;;;;;;;;;;;;-0.97;91.75;100441.88;5013526;28;19918;-62
2022/01/22 03:57:10;;;;;;;;;;;;;;;-0.93;93.40;100441.09;5012183;28;19913;-61
2022/01/22 03:59:35;;;;;;;;;;;;;;;-0.92;93.57;100440.31;5013717;28;20303;-61
2022/01/22 04:04:34;;;;;;;;;;;;;;;-0.84;93.47;100448.84;5013721;28;19914;-61
2022/01/22 04:09:42;;;;;;;;;;;;;;;-1.56;91.58;100464.31;5013681;28;19956;-61
2022/01/22 04:12:09;;;;;;;;;;;;;;;-2.21;92.87;100459.91;5013276;28;19914;-61
2022/01/22 04:14:36;;;;;;;;;;;;;;;-2.44;97.75;100468.31;5012617;28;20402;-60
2022/01/22 04:17:22;;;;;;;;;;;;;;;-2.84;100.00;100481.13;5028579;28;19913;-61
2022/01/22 04:25:07;;;;;;;;;;;;;;;-3.19;100.00;100486.53;5013015;28;19921;-61
2022/01/22 04:27:32;;;;;;;;;;;;;;;-3.46;100.00;100493.00;5012966;28;20039;-61
2022/01/22 04:29:58;;;;;;;;;;;;;;;-2.86;100.00;100480.22;5013064;28;20299;-60
2022/01/22 04:32:25;;;;;;;;;;;;;;;-3.37;100.00;100479.28;5011619;28;20134;-60
2022/01/22 04:34:50;;;;;;;;;;;;;;;-3.01;100.00;100477.22;5012852;28;19922;-60
2022/01/22 04:37:18;;;;;;;;;;;;;;;-3.27;100.00;100482.94;5012471;28;19967;-61
2022/01/22 04:39:43;;;;;;;;;;;;;;;-3.17;100.00;100475.81;5012796;28;19939;-61
2022/01/22 04:42:08;;;;;;;;;;;;;;;-3.27;100.00;100495.34;5027950;28;19925;-60
2022/01/22 04:44:35;;;;;;;;;;;;;;;-3.31;100.00;100486.97;5011348;28;19913;-60
2022/01/22 04:55:02;;;;;;;;;;;;;;;-3.30;100.00;100487.78;5012389;28;20465;-60
2022/01/22 04:57:35;;;;;;;;;;;;;;;-3.18;100.00;100489.06;5012289;28;20314;-60
2022/01/22 05:00:00;;;;;;;;;;;;;;;-3.22;100.00;100492.25;5012252;28;19919;-60
2022/01/22 05:02:26;;;;;;;;;;;;;;;-3.47;100.00;100483.88;5012153;28;19928;-61
2022/01/22 05:04:51;;;;;;;;;;;;;;;-3.44;100.00;100493.91;5012243;28;19921;-61
2022/01/22 05:07:17;;;;;;;;;;;;;;;-3.75;100.00;100496.91;5012219;28;19913;-60
2022/01/22 05:09:42;;;;;;;;;;;;;;;-3.21;100.00;100491.44;5010758;28;19913;-61
2022/01/22 05:12:08;;;;;;;;;;;;;;;-3.47;100.00;100496.28;5010609;28;19921;-61
2022/01/22 05:14:33;;;;;;;;;;;;;;;-3.53;100.00;100502.72;5012190;28;19917;-61
2022/01/22 05:17:01;;;;;;;;;;;;;;;-3.81;100.00;100497.53;5011745;28;19914;-61
2022/01/22 05:22:17;;;;;;;;;;;;;;;-3.55;100.00;100498.50;5011970;28;20371;-61
2022/01/22 05:24:47;;;;;;;;;;;;;;;-3.60;100.00;100508.25;5027063;28;20350;-61
2022/01/22 05:38:04;;;;;;;;;;;;;;;-3.79;100.00;100498.44;5002826;28;20024;-61
2022/01/22 05:40:30;;;;;;;;;;;;;;;-3.57;100.00;100486.03;5011895;28;20004;-61
2022/01/22 05:42:55;;;;;;;;;;;;;;;-3.56;100.00;100497.66;5011455;28;19965;-61
2022/01/22 05:45:20;;;;;;;;;;;;;;;-3.49;100.00;100498.72;5026568;28;19948;-60
2022/01/22 05:47:46;;;;;;;;;;;;;;;-3.51;100.00;100498.66;5011475;28;19913;-61
2022/01/22 05:50:24;;;;;;;;;;;;;;;-4.10;100.00;100507.97;5011199;28;19943;-60
2022/01/22 05:53:04;;;;;;;;;;;;;;;-3.96;100.00;100496.13;5011579;28;20032;-60
2022/01/22 06:00:52;;;;;;;;;;;;;;;-4.27;100.00;100506.50;5011409;28;20422;-61
2022/01/22 06:03:17;;;;;;;;;;;;;;;-4.42;100.00;100500.94;5009754;28;19917;-61
2022/01/22 06:05:43;;;;;;;;;;;;;;;-4.15;100.00;100491.22;5010445;28;19921;-61
2022/01/22 06:08:08;;;;;;;;;;;;;;;-3.64;100.00;100489.06;5026426;28;19913;-60
2022/01/22 06:10:34;;;;;;;;;;;;;;;-3.31;100.00;100494.41;5011158;28;19924;-61
2022/01/22 06:13:12;;;;;;;;;;;;;;;-2.78;100.00;100483.81;5011023;28;20396;-61
2022/01/22 06:15:38;;;;;;;;;;;;;;;-2.64;100.00;100480.13;5011494;28;20004;-61
2022/01/22 06:18:03;;;;;;;;;;;;;;;-2.69;100.00;100474.16;5026220;28;19975;-60
2022/01/22 06:20:28;;;;;;;;;;;;;;;-2.29;100.00;100479.59;5010981;28;20438;-61
2022/01/22 06:22:54;;;;;;;;;;;;;;;-0.92;100.00;100483.56;5011192;28;19913;-61
2022/01/22 06:25:19;;;;;;;;;;;;;;;-0.44;100.00;100480.59;5010912;28;19921;-61
2022/01/22 06:27:44;;;;;;;;;;;;;;;1.07;98.71;100474.63;5010813;28;20004;-61
2022/01/22 06:30:10;;;;;;;;;;;;;;;-0.21;92.10;100477.84;5011297;28;20004;-61
2022/01/22 06:32:35;;;;;;;;;;;;;;;0.73;87.04;100479.84;5011048;28;20299;-61
2022/01/22 06:35:00;;;;;;;;;;;;;;;1.16;81.21;100471.47;5010933;28;19928;-60
2022/01/22 06:37:25;;;;;;;;;;;;;;;1.96;74.23;100465.25;5026600;28;19996;-61
2022/01/22 06:41:44;;;;;;;;;;;;;;;1.76;76.47;100453.25;5015082;28;19994;-61
2022/01/22 06:42:48;;;;;;;;;;;;;;;0.93;81.53;100452.69;5014918;28;20005;-61
2022/01/22 06:45:13;;;;;;;;;;;;;;;2.46;77.55;100451.69;5014862;28;20446;-61
2022/01/22 06:47:39;;;;;;;;;;;;;;;1.82;74.84;100446.66;5015021;28;19997;-61
2022/01/22 06:50:04;;;;;;;;;;;;;;;2.22;76.40;100448.91;5014753;28;19909;-61
2022/01/22 06:52:30;;;;;;;;;;;;;;;1.67;74.78;100438.09;5014569;28;19982;-61
2022/01/22 06:54:56;;;;;;;;;;;;;;;2.80;69.97;100426.16;5014532;28;20302;-61
2022/01/22 06:57:21;;;;;;;;;;;;;;;1.50;69.20;100421.13;5014861;28;19916;-61
2022/01/22 06:59:48;;;;;;;;;;;;;;;1.70;73.18;100418.09;5014420;28;19921;-61
2022/01/22 07:02:13;;;;;;;;;;;;;;;1.10;75.94;100413.78;5014766;28;20272;-61
2022/01/22 07:04:39;;;;;;;;;;;;;;;3.61;68.61;100402.56;5014393;28;19924;-61
2022/01/22 07:07:05;;;;;;;;;;;;;;;3.96;64.18;100393.59;5014250;28;19917;-61
2022/01/22 07:09:30;;;;;;;;;;;;;;;5.88;59.55;100372.84;5014231;28;19920;-62
2022/01/22 07:11:56;;;;;;;;;;;;;;;6.76;55.34;100364.88;5013714;28;20016;-61
2022/01/22 07:14:21;;;;;;;;;;;;;;;6.47;54.05;100360.00;5012805;28;19918;-61
2022/01/22 07:16:46;;;;;;;;;;;;;;;7.29;52.95;100341.72;5014190;28;20383;-61
2022/01/22 07:19:17;;;;;;;;;;;;;;;6.11;52.77;100352.59;5014508;28;19948;-61
2022/01/22 07:21:43;;;;;;;;;;;;;;;6.49;53.86;100360.84;5025871;28;19945;-61
2022/01/22 07:24:26;;;;;;;;;;;;;;;4.10;55.53;100371.88;4994075;28;19991;-61
2022/01/22 07:26:51;;;;;;;;;;;;;;;0.23;68.89;100411.34;4994365;28;19914;-61
2022/01/22 07:29:17;;;;;;;;;;;;;;;1.07;78.87;100402.06;4994332;28;19988;-61
2022/01/22 07:31:42;;;;;;;;;;;;;;;0.96;85.41;100393.53;4993190;28;20047;-61
2022/01/22 07:34:07;;;;;;;;;;;;;;;0.76;85.74;100389.84;4994609;28;20013;-62
2022/01/22 07:36:33;;;;;;;;;;;;;;;1.64;88.17;100385.44;4992917;28;19922;-61
2022/01/22 07:38:58;;;;;;;;;;;;;;;1.17;81.92;100383.88;4994193;28;20000;-61
2022/01/22 07:41:23;;;;;;;;;;;;;;;0.90;81.86;100388.44;4994192;28;19964;-62
2022/01/22 07:43:49;;;;;;;;;;;;;;;1.27;82.10;100382.38;4994070;28;19917;-61
2022/01/22 07:46:14;;;;;;;;;;;;;;;2.14;80.22;100376.06;5006690;28;19914;-61
2022/01/22 07:48:39;;;;;;;;;;;;;;;1.89;77.32;100379.09;5013118;28;19918;-61
2022/01/22 07:51:04;;;;;;;;;;;;;;;1.53;77.54;100378.59;5012796;28;19918;-62
2022/01/22 07:53:30;;;;;;;;;;;;;;;0.77;86.13;100382.34;5013597;28;19921;-62
2022/01/22 07:55:55;;;;;;;;;;;;;;;1.63;87.52;100377.91;5013449;28;19913;-61
2022/01/22 07:58:21;;;;;;;;;;;;;;;1.67;84.51;100372.13;5013446;28;20375;-63
2022/01/22 08:00:46;;;;;;;;;;;;;;;1.56;83.53;100364.47;5014103;28;20068;-62
2022/01/22 08:03:11;;;;;;;;;;;;;;;1.68;80.54;100367.13;5013025;28;19976;-62
2022/01/22 08:05:36;;;;;;;;;;;;;;;1.66;78.25;100363.75;5013343;28;19960;-62
2022/01/22 08:08:03;;;;;;;;;;;;;;;1.93;77.71;100362.44;5011901;28;20043;-62
2022/01/22 08:10:28;;;;;;;;;;;;;;;1.53;79.60;100361.06;5013289;28;19971;-62
2022/01/22 08:12:55;;;;;;;;;;;;;;;2.30;79.43;100352.00;5012813;28;19913;-62
2022/01/22 08:15:21;;;;;;;;;;;;;;;2.14;81.13;100352.69;5028434;28;20377;-62
2022/01/22 08:17:47;;;;;;;;;;;;;;;2.06;78.90;100356.78;5013196;28;19929;-62
2022/01/22 08:20:14;;;;;;;;;;;;;;;2.40;80.02;100348.78;5013303;28;20028;-62
2022/01/22 08:22:39;;;;;;;;;;;;;;;1.83;83.05;100353.09;5013113;28;20427;-62
2022/01/22 08:25:05;;;;;;;;;;;;;;;1.89;81.29;100348.19;5012956;28;19929;-62
2022/01/22 08:29:56;;;;;;;;;;;;;;;2.39;77.56;100344.59;5013074;28;20409;-62
2022/01/22 08:32:34;;;;;;;;;;;;;;;2.44;74.18;100346.34;5012763;28;19910;-62
2022/01/22 08:37:43;;;;;;;;;;;;;;;1.91;68.34;100347.38;5012650;28;19976;-62
2022/01/22 08:40:09;;;;;;;;;;;;;;;2.51;68.09;100338.06;5012979;28;20339;-62
2022/01/22 08:42:34;;;;;;;;;;;;;;;1.98;69.96;100354.13;5012793;28;19914;-62
2022/01/22 08:44:59;;;;;;;;;;;;;;;2.46;70.48;100338.81;5012258;28;19917;-62
2022/01/22 08:47:25;;;;;;;;;;;;;;;2.25;70.44;100339.44;5012284;28;20517;-62
2022/01/22 08:49:50;;;;;;;;;;;;;;;2.09;72.74;100340.09;5012576;28;19991;-62
2022/01/22 08:52:16;;;;;;;;;;;;;;;2.06;72.35;100339.22;5012643;28;19913;-61
2022/01/22 08:54:43;;;;;;;;;;;;;;;2.00;70.93;100339.16;5012546;28;19948;-62
2022/01/22 08:57:09;;;;;;;;;;;;;;;1.70;71.11;100335.41;5012671;28;19921;-61
2022/01/22 08:59:34;;;;;;;;;;;;;;;2.02;68.61;100335.00;5012143;28;19917;-62
2022/01/22 09:01:59;;;;;;;;;;;;;;;1.99;67.90;100329.94;5012341;28;19964;-61
2022/01/22 09:04:25;;;;;;;;;;;;;;;2.13;65.66;100323.41;5012636;28;19925;-62
2022/01/22 09:06:50;;;;;;;;;;;;;;;1.92;65.26;100324.03;5027605;28;20377;-62
2022/01/22 09:09:15;;;;;;;;;;;;;;;2.23;63.36;100323.53;5012153;28;20383;-62
2022/01/22 09:11:42;;;;;;;;;;;;;;;2.27;64.09;100310.22;5012279;28;19953;-62
2022/01/22 09:14:08;;;;;;;;;;;;;;;2.52;63.56;100299.59;5011953;28;20292;-61
2022/01/22 09:16:34;;;;;;;;;;;;;;;2.24;64.11;100302.63;5010700;28;20000;-62
2022/01/22 09:19:06;;;;;;;;;;;;;;;2.31;64.30;100303.56;5011818;28;19917;-62
2022/01/22 09:21:43;;;;;;;;;;;;;;;2.19;63.37;100298.41;5011961;28;20430;-62
2022/01/22 09:24:09;;;;;;;;;;;;;;;1.92;62.92;100295.59;5010686;28;19963;-62
2022/01/22 09:26:34;;;;;;;;;;;;;;;2.25;62.52;100285.94;5012126;28;19987;-61
2022/01/22 09:29:00;;;;;;;;;;;;;;;2.62;62.35;100280.44;5012126;28;20387;-61
2022/01/22 09:31:27;;;;;;;;;;;;;;;2.82;59.97;100278.09;5011644;28;19961;-61
2022/01/22 09:33:55;;;;;;;;;;;;;;;2.25;60.82;100268.38;5011763;28;19952;-61
2022/01/22 09:36:21;;;;;;;;;;;;;;;2.12;60.85;100267.41;5012155;28;19913;-61
2022/01/22 09:38:46;;;;;;;;;;;;;;;2.05;61.08;100262.31;5011671;28;19913;-62
2022/01/22 09:41:13;;;;;;;;;;;;;;;1.85;60.53;100263.75;5011621;28;20027;-62
2022/01/22 09:43:38;;;;;;;;;;;;;;;1.96;62.28;100267.25;5011462;28;19925;-62
2022/01/22 09:46:04;;;;;;;;;;;;;;;2.03;62.16;100253.94;5011815;28;19940;-62
2022/01/22 09:48:30;;;;;;;;;;;;;;;1.89;61.78;100252.94;5011489;28;20360;-62
2022/01/22 09:50:55;;;;;;;;;;;;;;;1.91;61.72;100248.78;5011841;28;19913;-62
2022/01/22 09:53:21;;;;;;;;;;;;;;;2.12;61.63;100246.53;5026550;28;19921;-62
2022/01/22 09:55:46;;;;;;;;;;;;;;;2.02;61.29;100249.75;5011319;28;19921;-62
2022/01/22 09:58:11;;;;;;;;;;;;;;;2.17;62.10;100237.38;5011519;28;20384;-63
2022/01/22 10:00:37;;;;;;;;;;;;;;;2.51;66.78;100236.88;5011021;28;19920;-63
2022/01/22 10:03:02;;;;;;;;;;;;;;;1.95;62.66;100227.94;5011414;28;19917;-63
2022/01/22 10:05:29;;;;;;;;;;;;;;;2.04;60.14;100223.88;5011185;28;19913;-62
2022/01/22 10:07:54;;;;;;;;;;;;;;;1.77;56.33;100216.91;5011428;28;19913;-62
2022/01/22 10:10:20;;;;;;;;;;;;;;;2.43;57.84;100220.91;5011112;28;19971;-62
2022/01/22 10:12:47;;;;;;;;;;;;;;;2.19;55.46;100220.69;5010493;28;20295;-63
2022/01/22 10:15:13;;;;;;;;;;;;;;;2.48;53.85;100216.75;5011083;28;19967;-63
2022/01/22 10:17:38;;;;;;;;;;;;;;;2.41;53.75;100202.50;5011227;28;19918;-61
2022/01/22 10:20:04;;;;;;;;;;;;;;;2.42;56.55;100209.16;5011372;28;19914;-64
2022/01/22 10:22:48;;;;;;;;;;;;;;;2.23;54.69;100208.19;5010764;28;19996;-64
2022/01/22 10:25:20;;;;;;;;;;;;;;;2.00;54.98;100199.59;5010729;28;19913;-66
2022/01/22 10:27:54;;;;;;;;;;;;;;;2.00;55.21;100201.28;4991183;28;19917;-65
2022/01/22 10:30:20;;;;;;;;;;;;;;;1.84;54.94;100209.47;4991642;28;19963;-65
2022/01/22 10:32:50;;;;;;;;;;;;;;;1.87;55.24;100204.47;5006633;28;19945;-65
2022/01/22 10:35:16;;;;;;;;;;;;;;;1.91;55.92;100206.19;4991375;28;20379;-64
2022/01/22 10:37:42;;;;;;;;;;;;;;;2.05;55.31;100197.16;4992658;28;19914;-64
2022/01/22 10:40:19;;;;;;;;;;;;;;;2.07;55.56;100195.50;5010853;28;19936;-64
2022/01/22 10:42:45;;;;;;;;;;;;;;;2.21;54.92;100188.94;5009542;28;19918;-65
2022/01/22 10:45:14;;;;;;;;;;;;;;;2.04;55.54;100182.94;5011019;28;19964;-66
2022/01/22 10:47:40;;;;;;;;;;;;;;;1.94;54.85;100179.47;5010736;28;20030;-67
2022/01/22 10:50:18;;;;;;;;;;;;;;;2.09;57.52;100178.81;5009643;28;20036;-65
2022/01/22 10:52:50;;;;;;;;;;;;;;;2.09;58.14;100183.81;5010920;28;19918;-66
2022/01/22 10:55:15;;;;;;;;;;;;;;;1.84;57.87;100181.91;5010683;28;19913;-65
2022/01/22 10:58:00;;;;;;;;;;;;;;;1.71;60.19;100171.75;5011017;28;20003;-66
2022/01/22 11:00:26;;;;;;;;;;;;;;;1.48;62.79;100183.19;5010585;28;19913;-65
2022/01/22 11:02:51;;;;;;;;;;;;;;;1.71;63.83;100183.44;5011011;28;19924;-66
2022/01/22 11:05:32;;;;;;;;;;;;;;;1.57;66.05;100188.28;5010186;28;19917;-66
2022/01/22 11:08:12;;;;;;;;;;;;;;;1.39;66.97;100182.22;5010912;28;19914;-64
2022/01/22 11:10:38;;;;;;;;;;;;;;;1.65;66.79;100171.69;5010533;28;19923;-66
2022/01/22 11:13:04;;;;;;;;;;;;;;;1.49;66.88;100167.34;5025750;28;20008;-64
2022/01/22 11:15:29;;;;;;;;;;;;;;;1.59;66.59;100161.59;5025718;28;20019;-65
2022/01/22 11:17:55;;;;;;;;;;;;;;;1.28;67.77;100166.25;5010515;28;19971;-66
2022/01/22 11:20:20;;;;;;;;;;;;;;;1.42;68.27;100165.59;5009292;28;20388;-65
2022/01/22 11:22:46;;;;;;;;;;;;;;;1.34;65.66;100162.16;5010540;28;19913;-65
2022/01/22 11:25:12;;;;;;;;;;;;;;;1.69;65.50;100152.50;5013322;28;19960;-65
2022/01/22 11:27:38;;;;;;;;;;;;;;;1.69;64.17;100157.53;5014180;28;19956;-65
2022/01/22 11:30:06;;;;;;;;;;;;;;;1.83;63.73;100150.13;5013676;28;20059;-64
2022/01/22 11:32:36;;;;;;;;;;;;;;;2.29;62.65;100149.72;5013229;28;19917;-65
2022/01/22 11:35:03;;;;;;;;;;;;;;;2.86;61.09;100141.75;5013619;28;19917;-66
2022/01/22 11:37:48;;;;;;;;;;;;;;;3.39;60.12;100127.75;5012051;28;19909;-64
2022/01/22 11:40:13;;;;;;;;;;;;;;;3.45;57.21;100126.09;5012852;28;20380;-66
2022/01/22 11:42:55;;;;;;;;;;;;;;;3.94;56.66;100129.53;5012589;28;19971;-64
2022/01/22 11:45:42;;;;;;;;;;;;;;;3.78;57.04;100135.41;5011995;28;19948;-66
2022/01/22 11:48:11;;;;;;;;;;;;;;;4.21;54.83;100124.53;5013011;28;20391;-65
2022/01/22 11:50:38;;;;;;;;;;;;;;;3.26;56.19;100126.03;5013716;28;19914;-64
2022/01/22 11:53:23;;;;;;;;;;;;;;;2.79;58.19;100135.03;5012136;28;20396;-65
2022/01/22 11:56:07;;;;;;;;;;;;;;;2.57;59.25;100136.56;5013794;28;19971;-66
2022/01/22 11:58:32;;;;;;;;;;;;;;;2.35;59.14;100133.06;5011651;28;19992;-64
2022/01/22 12:00:58;;;;;;;;;;;;;;;2.37;59.00;100133.06;5012317;28;20351;-65
2022/01/22 12:03:23;;;;;;;;;;;;;;;2.08;59.96;100137.03;5013646;28;19918;-64
2022/01/22 12:05:54;;;;;;;;;;;;;;;1.78;63.70;100150.13;5013571;28;19921;-64
2022/01/22 12:08:23;;;;;;;;;;;;;;;1.77;68.37;100148.41;5013534;28;19945;-64
2022/01/22 12:16:12;;;;;;;;;;;;;;;2.26;69.79;100144.66;5013031;28;19943;-65
2022/01/22 12:18:43;;;;;;;;;;;;;;;2.01;69.99;100147.81;5012492;28;19913;-64
2022/01/22 12:23:53;;;;;;;;;;;;;;;2.31;65.51;100148.06;5013138;28;19920;-65
2022/01/22 12:26:36;;;;;;;;;;;;;;;2.13;65.87;100141.25;5012987;28;19917;-65
2022/01/22 12:29:21;;;;;;;;;;;;;;;2.26;65.75;100143.00;5013059;28;20387;-66
2022/01/22 12:32:05;;;;;;;;;;;;;;;1.49;75.40;100154.81;5011159;28;20349;-65
2022/01/22 12:34:50;;;;;;;;;;;;;;;1.82;81.35;100151.84;5011824;28;19917;-65
2022/01/22 12:37:16;;;;;;;;;;;;;;;2.31;89.58;100148.06;5012975;28;19914;-65
2022/01/22 12:39:44;;;;;;;;;;;;;;;2.19;98.40;100155.50;5013144;28;19917;-65
2022/01/22 12:42:12;;;;;;;;;;;;;;;1.84;100.00;100152.69;5011529;28;19920;-64
2022/01/22 12:44:46;;;;;;;;;;;;;;;2.43;100.00;100149.00;4663179;28;9999673;-64
2022/01/22 12:47:12;;;;;;;;;;;;;;;2.55;100.00;100150.75;5006979;28;19917;-64
2022/01/22 12:49:38;;;;;;;;;;;;;;;3.69;100.00;100142.06;5008588;28;20023;-63
2022/01/22 12:52:05;;;;;;;;;;;;;;;3.65;100.00;100136.19;5007317;28;20694;-63
2022/01/22 12:54:32;;;;;;;;;;;;;;;4.04;89.02;100142.97;5008619;28;19924;-63
2022/01/22 12:57:04;;;;;;;;;;;;;;;4.31;83.97;100137.94;5008519;28;19924;-64
2022/01/22 12:59:32;;;;;;;;;;;;;;;4.18;78.83;100137.09;5008867;28;19948;-64
2022/01/22 13:01:57;;;;;;;;;;;;;;;3.77;68.25;100138.72;5008285;28;19925;-64
2022/01/22 13:04:22;;;;;;;;;;;;;;;4.81;66.28;100135.38;5008710;28;20300;-63
2022/01/22 13:06:51;;;;;;;;;;;;;;;3.56;66.58;100132.81;5008683;28;19921;-65
2022/01/22 13:09:16;;;;;;;;;;;;;;;3.91;65.69;100139.59;5008199;28;21062;-64
2022/01/22 13:11:49;;;;;;;;;;;;;;;3.27;67.03;100143.59;5008644;28;19982;-64
2022/01/22 13:14:16;;;;;;;;;;;;;;;2.01;79.96;100152.81;5008704;28;19940;-65
2022/01/22 13:16:48;;;;;;;;;;;;;;;1.71;92.26;100164.25;5008337;28;20334;-64
2022/01/22 13:19:14;;;;;;;;;;;;;;;1.57;100.00;100147.38;5008571;28;19917;-63
2022/01/22 13:21:47;;;;;;;;;;;;;;;1.33;100.00;100162.97;5008405;28;19917;-64
2022/01/22 13:24:12;;;;;;;;;;;;;;;1.28;100.00;100161.22;5008485;28;19955;-63
2022/01/22 13:26:41;;;;;;;;;;;;;;;1.25;100.00;100162.03;5008518;28;20407;-63
2022/01/22 13:29:17;;;;;;;;;;;;;;;1.33;100.00;100160.47;5008125;28;19928;-64
2022/01/22 13:31:58;;;;;;;;;;;;;;;1.33;100.00;100164.63;5008137;28;19940;-64
2022/01/22 13:34:46;;;;;;;;;;;;;;;1.49;100.00;100159.81;5008349;28;20426;-64
2022/01/22 13:47:56;;;;;;;;;;;;;;;1.46;100.00;100169.81;4987544;28;19921;-63
2022/01/22 13:50:22;;;;;;;;;;;;;;;1.49;100.00;100161.47;4987080;28;19917;-62
2022/01/22 13:52:47;;;;;;;;;;;;;;;1.53;100.00;100159.03;4988501;28;19922;-64
2022/01/22 13:55:14;;;;;;;;;;;;;;;1.57;100.00;100150.72;4988538;28;19954;-63
2022/01/22 13:57:39;;;;;;;;;;;;;;;1.88;99.13;100149.38;4987971;28;19917;-64
2022/01/22 14:00:09;;;;;;;;;;;;;;;1.97;98.79;100149.47;4988364;28;19917;-63
2022/01/22 14:05:27;;;;;;;;;;;;;;;1.94;97.66;100136.06;4988482;28;19968;-63
2022/01/22 14:08:05;;;;;;;;;;;;;;;2.26;96.64;100170.59;4987953;28;19921;-62
2022/01/22 14:10:31;;;;;;;;;;;;;;;1.91;99.68;100169.44;4988087;28;19918;-64
2022/01/22 14:13:07;;;;;;;;;;;;;;;1.88;100.00;100166.06;4988234;28;19917;-64
2022/01/22 14:15:34;;;;;;;;;;;;;;;2.02;100.00;100157.84;4988759;28;19918;-63
2022/01/22 14:20:33;;;;;;;;;;;;;;;1.45;100.00;100163.09;4987348;28;19946;-63
2022/01/22 14:23:04;;;;;;;;;;;;;;;1.17;100.00;100170.28;4988111;28;19964;-64
2022/01/22 14:25:29;;;;;;;;;;;;;;;0.83;100.00;100161.50;4988011;28;19921;-64
2022/01/22 14:27:56;;;;;;;;;;;;;;;0.86;100.00;100159.03;4986782;28;19925;-63
2022/01/22 14:30:31;;;;;;;;;;;;;;;1.13;100.00;100158.56;4988296;28;20036;-62
2022/01/22 14:32:57;;;;;;;;;;;;;;;1.13;100.00;100161.06;4987501;28;19918;-63
2022/01/22 14:35:23;;;;;;;;;;;;;;;1.07;100.00;100155.97;4988096;28;19925;-63
2022/01/22 14:37:50;;;;;;;;;;;;;;;1.06;100.00;100169.28;4990442;28;19921;-64
2022/01/22 14:45:57;;;;;;;;;;;;;;;0.92;100.00;100179.13;5007092;28;19924;-63